Time;durP1;ratioP1;P1;durP2;ratioP2;P2;SDS_P1;SDS_P2;PMS_P1;PMS_P2;Temp;Humidity;BMP_temperature;BMP_pressure;BME280_temperature;BME280_humidity;BME280_pressure;Samples;Min_cycle;Max_cycle;Signal;HPM_P1;HPM_P2
2023/03/03 16:40:58;;;;;;;17.55;8.30;;;19.40;50.90;;;;;;5146346;27;20965;-72
2023/03/03 16:43:39;;;;;;;14.02;7.43;;;19.60;53.90;;;;;;5099034;28;20106;-72
2023/03/03 16:46:19;;;;;;;15.48;8.45;;;19.70;53.80;;;;;;5106275;28;20132;-72
2023/03/03 16:49:01;;;;;;;14.43;8.05;;;19.70;53.00;;;;;;5119156;27;20032;-73
2023/03/03 16:51:56;;;;;;;21.25;8.68;;;19.70;54.20;;;;;;5097684;28;20193;-72
2023/03/03 16:54:31;;;;;;;23.58;7.80;;;19.80;55.40;;;;;;5082108;28;20036;-82
2023/03/03 16:57:33;;;;;;;15.88;7.65;;;19.90;55.10;;;;;;5113087;28;20027;-73
2023/03/03 17:00:09;;;;;;;12.68;7.75;;;19.90;55.70;;;;;;5109129;27;20031;-73
2023/03/03 17:02:47;;;;;;;14.85;7.95;;;19.90;56.20;;;;;;5112646;27;20031;-72
2023/03/03 17:05:52;;;;;;;14.30;6.78;;;20.00;57.10;;;;;;5105579;28;20058;-75
2023/03/03 17:08:26;;;;;;;17.98;8.32;;;20.00;56.10;;;;;;5115734;28;20115;-74
2023/03/03 17:11:11;;;;;;;17.08;8.57;;;20.10;57.00;;;;;;5118130;28;20850;-74
2023/03/03 17:14:01;;;;;;;20.15;8.52;;;20.10;57.90;;;;;;5116992;28;20028;-74
2023/03/03 17:17:04;;;;;;;19.70;9.30;;;20.10;58.00;;;;;;5108663;28;20084;-74
2023/03/03 17:19:48;;;;;;;15.95;8.43;;;20.10;56.50;;;;;;5116623;28;20055;-75
2023/03/03 17:22:26;;;;;;;24.50;8.88;;;20.00;56.90;;;;;;5118663;28;20023;-74
2023/03/03 17:25:01;;;;;;;21.90;8.95;;;20.10;57.00;;;;;;5117439;27;20030;-75
2023/03/03 17:27:41;;;;;;;16.27;8.38;;;20.00;57.00;;;;;;5133416;22;20297;-73
2023/03/03 17:30:25;;;;;;;;;;;20.10;56.90;;;;;;5094265;28;20050;-74
2023/03/03 17:33:05;;;;;;;20.80;8.95;;;20.00;56.40;;;;;;5095970;28;19912;-74
2023/03/03 17:35:40;;;;;;;23.75;9.18;;;20.00;56.70;;;;;;5090577;28;20025;-74
2023/03/03 17:38:32;;;;;;;27.15;9.73;;;20.10;56.80;;;;;;5090182;28;20024;-74
2023/03/03 17:41:19;;;;;;;23.13;9.88;;;20.10;56.90;;;;;;5076014;28;20024;-74
2023/03/03 17:44:10;;;;;;;19.77;9.18;;;20.10;56.90;;;;;;5066730;28;20031;-72
2023/03/03 17:46:52;;;;;;;24.42;9.13;;;20.10;56.80;;;;;;5023109;28;20028;-73
2023/03/03 17:49:30;;;;;;;26.17;9.65;;;20.20;56.60;;;;;;5064729;28;20066;-72
2023/03/03 17:52:18;;;;;;;22.33;9.60;;;20.10;56.60;;;;;;5053431;28;20062;-73
2023/03/03 17:55:08;;;;;;;24.73;9.43;;;20.20;56.80;;;;;;5038185;28;20501;-72
2023/03/03 17:58:02;;;;;;;28.58;9.73;;;20.10;56.70;;;;;;5071663;28;20048;-73
2023/03/03 18:00:49;;;;;;;26.23;9.75;;;20.10;56.70;;;;;;5034558;28;20648;-72
2023/03/03 18:03:37;;;;;;;22.10;9.45;;;20.20;56.70;;;;;;5071450;28;20397;-73
2023/03/03 18:06:19;;;;;;;25.33;9.75;;;20.10;56.60;;;;;;5070899;28;20148;-72
2023/03/03 18:08:51;;;;;;;22.80;8.95;;;20.10;56.40;;;;;;5069735;28;20100;-72
2023/03/03 18:11:45;;;;;;;29.45;9.93;;;20.20;56.40;;;;;;5071063;28;20100;-72
2023/03/03 18:14:17;;;;;;;23.98;9.13;;;20.10;56.10;;;;;;5071026;28;20457;-73
2023/03/03 18:17:04;;;;;;;22.15;9.45;;;20.10;56.20;;;;;;5060603;28;20040;-72
2023/03/03 18:19:55;;;;;;;20.65;9.30;;;20.10;56.20;;;;;;5049025;28;20039;-73
2023/03/03 18:22:24;;;;;;;21.65;8.98;;;20.10;56.00;;;;;;5032163;28;20041;-72
2023/03/03 18:24:50;;;;;;;21.50;9.50;;;20.10;56.00;;;;;;5067978;28;20037;-73
2023/03/03 18:27:39;;;;;;;19.27;8.25;;;20.00;55.60;;;;;;5049442;28;20024;-74
2023/03/03 18:30:25;;;;;;;19.55;9.00;;;20.00;55.60;;;;;;5033623;28;20036;-71
2023/03/03 18:32:54;;;;;;;21.73;8.38;;;20.00;55.80;;;;;;5035039;28;20557;-72
2023/03/03 18:35:29;;;;;;;25.38;9.07;;;20.00;56.00;;;;;;5053624;28;20024;-73
2023/03/03 18:37:55;;;;;;;24.75;8.88;;;20.00;56.10;;;;;;5050466;28;20036;-72
2023/03/03 18:40:27;;;;;;;22.60;9.57;;;20.10;56.10;;;;;;5049915;28;20036;-72
2023/03/03 18:42:54;;;;;;;25.33;10.35;;;20.10;57.70;;;;;;5033710;28;20032;-72
2023/03/03 18:45:21;;;;;;;28.02;9.80;;;20.10;58.30;;;;;;5047953;28;20045;-72
2023/03/03 18:48:00;;;;;;;20.85;9.20;;;20.10;57.00;;;;;;5050079;28;20036;-72
2023/03/03 18:50:44;;;;;;;24.45;9.35;;;20.20;58.70;;;;;;5029642;28;20029;-72
2023/03/03 18:53:27;;;;;;;20.10;8.77;;;20.20;58.80;;;;;;5066626;28;20029;-72
2023/03/03 18:55:54;;;;;;;26.45;9.55;;;20.20;56.90;;;;;;5049964;28;20028;-72
2023/03/03 18:58:20;;;;;;;25.85;10.02;;;20.20;57.00;;;;;;5068038;28;20037;-73
2023/03/03 19:00:47;;;;;;;22.85;9.60;;;20.10;59.00;;;;;;5049623;28;20032;-73
2023/03/03 19:03:54;;;;;;;23.38;8.85;;;20.10;57.10;;;;;;5049142;28;20629;-73
2023/03/03 19:06:29;;;;;;;21.95;9.35;;;20.20;57.40;;;;;;5067683;28;20029;-73
2023/03/03 19:08:56;;;;;;;23.25;9.13;;;20.10;56.80;;;;;;5048580;28;20036;-73
2023/03/03 19:12:01;;;;;;;28.17;8.98;;;20.20;57.00;;;;;;5049260;28;20021;-74
2023/03/03 19:14:35;;;;;;;29.80;9.52;;;20.20;57.10;;;;;;4952353;28;20477;-72
2023/03/03 19:17:17;;;;;;;20.17;9.02;;;20.10;57.00;;;;;;4965112;28;20046;-72
2023/03/03 19:20:11;;;;;;;18.10;8.70;;;20.20;58.00;;;;;;5006748;28;20032;-72
2023/03/03 19:23:04;;;;;;;24.80;9.27;;;20.20;58.10;;;;;;5067435;28;20024;-71
2023/03/03 19:25:31;;;;;;;24.63;9.15;;;20.10;57.70;;;;;;5052392;28;20028;-71
2023/03/03 19:28:12;;;;;;;22.40;8.43;;;20.10;57.60;;;;;;5049282;28;20024;-72
2023/03/03 19:30:56;;;;;;;19.65;8.68;;;20.20;57.70;;;;;;5067265;28;20036;-72
2023/03/03 19:34:00;;;;;;;27.80;8.82;;;20.10;57.50;;;;;;5049004;28;20043;-71
2023/03/03 19:36:34;;;;;;;23.55;8.52;;;20.20;57.40;;;;;;5063658;28;20030;-72
2023/03/03 19:39:24;;;;;;;20.58;8.30;;;20.10;57.40;;;;;;5048855;28;20052;-72
2023/03/03 19:42:29;;;;;;;19.15;9.48;;;20.10;58.00;;;;;;5065693;28;20024;-71
2023/03/03 19:45:27;;;;;;;31.10;9.88;;;20.20;58.40;;;;;;5065770;28;20111;-72
2023/03/03 19:48:30;;;;;;;22.25;9.75;;;20.10;58.30;;;;;;5017758;28;20040;-72
2023/03/03 19:51:14;;;;;;;24.50;10.85;;;20.10;58.10;;;;;;5068302;28;20035;-71
2023/03/03 19:53:51;;;;;;;19.52;10.07;;;20.10;57.00;;;;;;5066982;28;20052;-72
2023/03/03 19:56:31;;;;;;;19.58;9.40;;;20.10;57.30;;;;;;5069075;28;20157;-72
2023/03/03 19:59:30;;;;;;;24.85;11.00;;;20.10;57.10;;;;;;5068189;28;20044;-72
2023/03/03 20:02:14;;;;;;;32.47;13.98;;;20.10;56.90;;;;;;5051665;28;20723;-72
2023/03/03 20:05:12;;;;;;;35.30;11.98;;;20.00;56.60;;;;;;5064007;28;20036;-72
2023/03/03 20:07:53;;;;;;;29.33;12.57;;;20.00;56.70;;;;;;5069833;28;20040;-72
2023/03/03 20:11:00;;;;;;;27.02;12.55;;;20.10;56.40;;;;;;5052088;28;20029;-72
2023/03/03 20:13:41;;;;;;;35.45;13.20;;;20.10;57.00;;;;;;4968541;28;20484;-71
2023/03/03 20:16:19;;;;;;;28.13;12.63;;;20.20;57.30;;;;;;5063365;28;20032;-72
2023/03/03 20:19:15;;;;;;;26.67;11.93;;;20.20;57.00;;;;;;5070683;28;20040;-71
2023/03/03 20:22:02;;;;;;;30.02;12.48;;;20.20;56.70;;;;;;5052369;28;20485;-71
2023/03/03 20:24:55;;;;;;;31.23;12.02;;;20.20;56.50;;;;;;5070991;28;20032;-71
2023/03/03 20:27:47;;;;;;;28.77;12.40;;;20.20;56.40;;;;;;5070384;28;20071;-71
2023/03/03 20:30:23;;;;;;;25.48;12.48;;;20.20;57.20;;;;;;5028764;28;20968;-71
2023/03/03 20:33:10;;;;;;;25.45;11.90;;;20.20;57.00;;;;;;5052821;28;20074;-71
2023/03/03 20:35:44;;;;;;;26.98;11.75;;;20.20;57.00;;;;;;5070392;28;20033;-71
2023/03/03 20:38:29;;;;;;;34.10;12.63;;;20.20;57.20;;;;;;5052489;28;20519;-71
2023/03/03 20:41:22;;;;;;;27.90;12.20;;;20.20;57.70;;;;;;5070879;28;20112;-71
2023/03/03 20:44:07;;;;;;;31.40;12.73;;;20.20;57.70;;;;;;5037172;28;20401;-71
2023/03/03 20:46:45;;;;;;;29.60;12.38;;;20.20;57.90;;;;;;5053330;28;20077;-71
2023/03/03 20:49:14;;;;;;;32.30;12.05;;;20.30;58.00;;;;;;5070798;28;20036;-70
2023/03/03 20:52:00;;;;;;;32.45;12.15;;;20.20;57.80;;;;;;5071012;28;20401;-71
2023/03/03 20:54:56;;;;;;;27.38;12.60;;;20.20;58.00;;;;;;5070646;28;20028;-71
2023/03/03 20:57:32;;;;;;;32.70;12.00;;;20.30;58.20;;;;;;5052723;28;20131;-71
2023/03/03 21:00:23;;;;;;;33.05;12.52;;;20.20;57.90;;;;;;5070706;28;20036;-72
2023/03/03 21:02:56;;;;;;;27.58;11.45;;;20.20;58.10;;;;;;5070466;28;20115;-72
2023/03/03 21:05:22;;;;;;;31.55;11.73;;;20.20;58.60;;;;;;5053451;28;20067;-72
2023/03/03 21:07:54;;;;;;;29.80;13.73;;;20.30;59.20;;;;;;5051257;28;20655;-72
2023/03/03 21:10:26;;;;;;;47.17;14.73;;;20.30;59.70;;;;;;5069771;28;20074;-72
2023/03/03 21:12:57;;;;;;;40.03;16.20;;;20.40;62.80;;;;;;5070410;28;20024;-72
2023/03/03 21:15:32;;;;;;;43.45;19.35;;;20.40;63.60;;;;;;5052969;28;20028;-72
2023/03/03 21:17:59;;;;;;;89.93;43.28;;;20.40;63.20;;;;;;5055953;28;20028;-71
2023/03/03 21:20:33;;;;;;;78.00;35.53;;;20.50;62.80;;;;;;5073397;28;20044;-72
2023/03/03 21:23:00;;;;;;;78.78;35.92;;;20.50;62.60;;;;;;5056651;28;20046;-71
2023/03/03 21:26:05;;;;;;;101.93;39.85;;;20.50;62.20;;;;;;5074124;28;20097;-71
